sensor_id;sensor_type;location;lat;lon;timestamp;pressure;altitude;pressure_sealevel;temperature;humidity
54936;BME280;40838;50.676;7.838;2024-03-08T00:00:28;98428.38;;;0.32;100.00
54936;BME280;40838;50.676;7.838;2024-03-08T00:02:58;98434.31;;;0.26;100.00
54936;BME280;40838;50.676;7.838;2024-03-08T00:05:27;98428.19;;;0.70;100.00
54936;BME280;40838;50.676;7.838;2024-03-08T00:07:54;98425.59;;;0.70;100.00
54936;BME280;40838;50.676;7.838;2024-03-08T00:10:21;98416.72;;;1.07;100.00
54936;BME280;40838;50.676;7.838;2024-03-08T00:12:48;98414.03;;;1.50;100.00
54936;BME280;40838;50.676;7.838;2024-03-08T00:15:17;98415.56;;;1.66;100.00
54936;BME280;40838;50.676;7.838;2024-03-08T00:17:46;98416.63;;;1.72;100.00
54936;BME280;40838;50.676;7.838;2024-03-08T00:20:13;98421.72;;;1.86;100.00
54936;BME280;40838;50.676;7.838;2024-03-08T00:22:40;98421.66;;;1.80;100.00
54936;BME280;40838;50.676;7.838;2024-03-08T00:25:07;98411.13;;;1.60;100.00
54936;BME280;40838;50.676;7.838;2024-03-08T00:27:35;98401.69;;;1.66;100.00
54936;BME280;40838;50.676;7.838;2024-03-08T00:30:03;98408.16;;;1.70;100.00
54936;BME280;40838;50.676;7.838;2024-03-08T00:32:30;98401.50;;;1.67;100.00
54936;BME280;40838;50.676;7.838;2024-03-08T00:34:58;98406.81;;;1.46;100.00
54936;BME280;40838;50.676;7.838;2024-03-08T00:37:25;98408.28;;;1.90;100.00
54936;BME280;40838;50.676;7.838;2024-03-08T00:39:52;98408.13;;;1.63;100.00
54936;BME280;40838;50.676;7.838;2024-03-08T00:42:20;98402.72;;;1.71;100.00
54936;BME280;40838;50.676;7.838;2024-03-08T00:44:47;98405.84;;;1.88;100.00
54936;BME280;40838;50.676;7.838;2024-03-08T00:47:16;98392.22;;;1.58;100.00
54936;BME280;40838;50.676;7.838;2024-03-08T00:49:43;98397.72;;;1.70;100.00
54936;BME280;40838;50.676;7.838;2024-03-08T00:52:11;98392.66;;;1.61;100.00
54936;BME280;40838;50.676;7.838;2024-03-08T00:54:38;98383.31;;;1.46;100.00
54936;BME280;40838;50.676;7.838;2024-03-08T00:57:05;98380.72;;;1.46;100.00
54936;BME280;40838;50.676;7.838;2024-03-08T00:59:32;98372.00;;;1.32;100.00
54936;BME280;40838;50.676;7.838;2024-03-08T01:01:59;98373.53;;;1.26;100.00
54936;BME280;40838;50.676;7.838;2024-03-08T01:04:25;98369.13;;;1.90;100.00
54936;BME280;40838;50.676;7.838;2024-03-08T01:06:54;98370.34;;;2.00;100.00
54936;BME280;40838;50.676;7.838;2024-03-08T01:09:23;98368.56;;;2.01;100.00
54936;BME280;40838;50.676;7.838;2024-03-08T01:11:50;98362.31;;;1.95;100.00
54936;BME280;40838;50.676;7.838;2024-03-08T01:14:19;98360.22;;;2.19;100.00
54936;BME280;40838;50.676;7.838;2024-03-08T01:16:47;98352.56;;;2.17;100.00
54936;BME280;40838;50.676;7.838;2024-03-08T01:19:14;98351.44;;;1.92;100.00
54936;BME280;40838;50.676;7.838;2024-03-08T01:21:41;98347.72;;;2.14;100.00
54936;BME280;40838;50.676;7.838;2024-03-08T01:24:08;98342.88;;;2.11;100.00
54936;BME280;40838;50.676;7.838;2024-03-08T01:26:36;98340.13;;;2.32;100.00
54936;BME280;40838;50.676;7.838;2024-03-08T01:29:02;98334.28;;;2.24;100.00
54936;BME280;40838;50.676;7.838;2024-03-08T01:31:29;98332.03;;;2.07;100.00
54936;BME280;40838;50.676;7.838;2024-03-08T01:33:56;98330.69;;;2.25;100.00
54936;BME280;40838;50.676;7.838;2024-03-08T01:36:23;98327.63;;;2.08;100.00
54936;BME280;40838;50.676;7.838;2024-03-08T01:38:50;98324.63;;;2.11;100.00
54936;BME280;40838;50.676;7.838;2024-03-08T01:41:16;98321.84;;;2.19;100.00
54936;BME280;40838;50.676;7.838;2024-03-08T01:43:45;98317.47;;;2.40;100.00
54936;BME280;40838;50.676;7.838;2024-03-08T01:46:13;98321.25;;;2.30;100.00
54936;BME280;40838;50.676;7.838;2024-03-08T01:48:42;98314.16;;;2.04;100.00
54936;BME280;40838;50.676;7.838;2024-03-08T01:51:09;98320.41;;;2.23;100.00
54936;BME280;40838;50.676;7.838;2024-03-08T01:53:37;98311.34;;;2.06;100.00
54936;BME280;40838;50.676;7.838;2024-03-08T01:56:05;98309.56;;;2.13;100.00
54936;BME280;40838;50.676;7.838;2024-03-08T01:58:32;98297.25;;;1.94;100.00
54936;BME280;40838;50.676;7.838;2024-03-08T02:01:01;98298.09;;;2.14;100.00
54936;BME280;40838;50.676;7.838;2024-03-08T02:03:29;98291.22;;;1.93;100.00
54936;BME280;40838;50.676;7.838;2024-03-08T02:05:57;98291.25;;;2.06;100.00
54936;BME280;40838;50.676;7.838;2024-03-08T02:08:24;98287.00;;;1.92;100.00
54936;BME280;40838;50.676;7.838;2024-03-08T02:10:51;98291.00;;;1.88;100.00
54936;BME280;40838;50.676;7.838;2024-03-08T02:13:18;98291.44;;;1.98;100.00
54936;BME280;40838;50.676;7.838;2024-03-08T02:15:55;98282.53;;;1.86;100.00
54936;BME280;40838;50.676;7.838;2024-03-08T02:18:26;98286.41;;;2.03;100.00
54936;BME280;40838;50.676;7.838;2024-03-08T02:20:55;98272.53;;;1.90;100.00
54936;BME280;40838;50.676;7.838;2024-03-08T02:23:23;98278.97;;;2.00;100.00
54936;BME280;40838;50.676;7.838;2024-03-08T02:25:50;98279.97;;;1.93;100.00
54936;BME280;40838;50.676;7.838;2024-03-08T02:28:18;98279.34;;;1.91;100.00
54936;BME280;40838;50.676;7.838;2024-03-08T02:30:46;98275.63;;;1.65;100.00
54936;BME280;40838;50.676;7.838;2024-03-08T02:33:13;98274.66;;;1.66;100.00
54936;BME280;40838;50.676;7.838;2024-03-08T02:35:42;98269.06;;;1.69;100.00
54936;BME280;40838;50.676;7.838;2024-03-08T02:38:12;98263.91;;;1.89;100.00
54936;BME280;40838;50.676;7.838;2024-03-08T02:40:41;98255.44;;;1.80;100.00
54936;BME280;40838;50.676;7.838;2024-03-08T02:43:08;98258.22;;;1.79;100.00
54936;BME280;40838;50.676;7.838;2024-03-08T02:45:35;98255.38;;;1.67;100.00
54936;BME280;40838;50.676;7.838;2024-03-08T02:48:02;98256.84;;;1.83;100.00
54936;BME280;40838;50.676;7.838;2024-03-08T02:50:29;98245.91;;;1.59;100.00
54936;BME280;40838;50.676;7.838;2024-03-08T02:52:56;98246.00;;;1.31;100.00
54936;BME280;40838;50.676;7.838;2024-03-08T02:55:25;98244.03;;;1.40;100.00
54936;BME280;40838;50.676;7.838;2024-03-08T02:57:52;98244.03;;;1.40;100.00
54936;BME280;40838;50.676;7.838;2024-03-08T03:00:20;98247.38;;;1.75;100.00
54936;BME280;40838;50.676;7.838;2024-03-08T03:02:48;98250.69;;;1.49;100.00
54936;BME280;40838;50.676;7.838;2024-03-08T03:05:17;98250.50;;;0.81;100.00
54936;BME280;40838;50.676;7.838;2024-03-08T03:07:44;98243.25;;;0.77;100.00
54936;BME280;40838;50.676;7.838;2024-03-08T03:10:11;98241.47;;;1.12;100.00
54936;BME280;40838;50.676;7.838;2024-03-08T03:12:44;98241.19;;;0.72;100.00
54936;BME280;40838;50.676;7.838;2024-03-08T03:15:11;98243.38;;;0.97;100.00
54936;BME280;40838;50.676;7.838;2024-03-08T03:17:38;98234.31;;;0.92;100.00
54936;BME280;40838;50.676;7.838;2024-03-08T03:20:06;98235.22;;;1.06;100.00
54936;BME280;40838;50.676;7.838;2024-03-08T03:22:38;98231.09;;;0.84;100.00
54936;BME280;40838;50.676;7.838;2024-03-08T03:25:07;98228.25;;;1.13;100.00
54936;BME280;40838;50.676;7.838;2024-03-08T03:27:35;98237.84;;;1.13;100.00
54936;BME280;40838;50.676;7.838;2024-03-08T03:30:04;98225.84;;;1.18;100.00
54936;BME280;40838;50.676;7.838;2024-03-08T03:33:04;98233.53;;;1.27;100.00
54936;BME280;40838;50.676;7.838;2024-03-08T03:35:32;98220.53;;;0.64;100.00
54936;BME280;40838;50.676;7.838;2024-03-08T03:37:59;98219.06;;;0.33;100.00
54936;BME280;40838;50.676;7.838;2024-03-08T03:40:32;98229.50;;;0.12;100.00
54936;BME280;40838;50.676;7.838;2024-03-08T03:42:59;98233.44;;;0.08;100.00
54936;BME280;40838;50.676;7.838;2024-03-08T03:45:26;98218.09;;;0.13;100.00
54936;BME280;40838;50.676;7.838;2024-03-08T03:47:53;98224.66;;;0.86;100.00
54936;BME280;40838;50.676;7.838;2024-03-08T03:50:22;98216.81;;;0.80;100.00
54936;BME280;40838;50.676;7.838;2024-03-08T03:52:49;98220.53;;;0.64;100.00
54936;BME280;40838;50.676;7.838;2024-03-08T03:55:16;98211.69;;;0.37;100.00
54936;BME280;40838;50.676;7.838;2024-03-08T03:57:43;98212.59;;;0.50;100.00
54936;BME280;40838;50.676;7.838;2024-03-08T04:00:12;98209.19;;;0.50;100.00
54936;BME280;40838;50.676;7.838;2024-03-08T04:02:40;98213.34;;;0.44;100.00
54936;BME280;40838;50.676;7.838;2024-03-08T04:05:08;98212.72;;;0.42;100.00
54936;BME280;40838;50.676;7.838;2024-03-08T04:07:37;98207.88;;;0.61;100.00
54936;BME280;40838;50.676;7.838;2024-03-08T04:10:05;98201.78;;;0.25;100.00
54936;BME280;40838;50.676;7.838;2024-03-08T04:12:32;98206.97;;;0.04;100.00
54936;BME280;40838;50.676;7.838;2024-03-08T04:14:59;98199.63;;;0.29;100.00
54936;BME280;40838;50.676;7.838;2024-03-08T04:17:26;98201.59;;;0.27;100.00
54936;BME280;40838;50.676;7.838;2024-03-08T04:19:53;98193.97;;;-0.17;100.00
54936;BME280;40838;50.676;7.838;2024-03-08T04:22:20;98200.13;;;-0.40;100.00
54936;BME280;40838;50.676;7.838;2024-03-08T04:24:49;98192.28;;;-0.25;100.00
54936;BME280;40838;50.676;7.838;2024-03-08T04:27:16;98188.75;;;-0.54;100.00
54936;BME280;40838;50.676;7.838;2024-03-08T04:29:43;98200.34;;;-0.20;100.00
54936;BME280;40838;50.676;7.838;2024-03-08T04:32:10;98199.63;;;0.29;100.00
54936;BME280;40838;50.676;7.838;2024-03-08T04:34:38;98190.97;;;0.50;100.00
54936;BME280;40838;50.676;7.838;2024-03-08T04:37:06;98191.38;;;0.04;100.00
54936;BME280;40838;50.676;7.838;2024-03-08T04:39:36;98188.25;;;-0.28;100.00
54936;BME280;40838;50.676;7.838;2024-03-08T04:42:05;98190.06;;;-0.28;100.00
54936;BME280;40838;50.676;7.838;2024-03-08T04:44:35;98191.78;;;-0.35;100.00
54936;BME280;40838;50.676;7.838;2024-03-08T04:47:03;98189.63;;;-0.32;100.00
54936;BME280;40838;50.676;7.838;2024-03-08T04:49:31;98186.94;;;-0.90;100.00
54936;BME280;40838;50.676;7.838;2024-03-08T04:52:01;98190.53;;;-0.76;100.00
54936;BME280;40838;50.676;7.838;2024-03-08T04:54:28;98191.16;;;-1.18;100.00
54936;BME280;40838;50.676;7.838;2024-03-08T04:56:55;98192.50;;;-0.78;100.00
54936;BME280;40838;50.676;7.838;2024-03-08T04:59:24;98188.56;;;-0.89;100.00
54936;BME280;40838;50.676;7.838;2024-03-08T05:01:50;98186.38;;;-0.55;100.00
54936;BME280;40838;50.676;7.838;2024-03-08T05:04:17;98181.00;;;-0.69;100.00
54936;BME280;40838;50.676;7.838;2024-03-08T05:06:44;98185.16;;;-0.74;100.00
54936;BME280;40838;50.676;7.838;2024-03-08T05:09:11;98184.84;;;-0.50;100.00
54936;BME280;40838;50.676;7.838;2024-03-08T05:11:40;98184.16;;;-0.37;100.00
54936;BME280;40838;50.676;7.838;2024-03-08T05:14:07;98173.91;;;-0.60;100.00
54936;BME280;40838;50.676;7.838;2024-03-08T05:16:35;98177.00;;;-0.35;100.00
54936;BME280;40838;50.676;7.838;2024-03-08T05:19:02;98172.53;;;-0.20;100.00
54936;BME280;40838;50.676;7.838;2024-03-08T05:21:29;98180.50;;;-1.08;100.00
54936;BME280;40838;50.676;7.838;2024-03-08T05:23:56;98181.22;;;-1.15;100.00
54936;BME280;40838;50.676;7.838;2024-03-08T05:26:23;98172.34;;;-0.91;100.00
54936;BME280;40838;50.676;7.838;2024-03-08T05:28:49;98179.59;;;-1.01;100.00
54936;BME280;40838;50.676;7.838;2024-03-08T05:31:19;98173.84;;;-0.67;100.00
54936;BME280;40838;50.676;7.838;2024-03-08T05:33:49;98172.41;;;-0.69;100.00
54936;BME280;40838;50.676;7.838;2024-03-08T05:36:16;98179.25;;;-0.83;100.00
54936;BME280;40838;50.676;7.838;2024-03-08T05:38:43;98164.88;;;-0.64;100.00
54936;BME280;40838;50.676;7.838;2024-03-08T05:41:10;98156.75;;;-0.18;100.00
54936;BME280;40838;50.676;7.838;2024-03-08T05:43:37;98160.34;;;0.02;100.00
54936;BME280;40838;50.676;7.838;2024-03-08T05:46:05;98153.44;;;0.72;100.00
54936;BME280;40838;50.676;7.838;2024-03-08T05:48:31;98156.97;;;0.58;100.00
54936;BME280;40838;50.676;7.838;2024-03-08T05:51:00;98150.63;;;0.74;100.00
54936;BME280;40838;50.676;7.838;2024-03-08T05:53:28;98141.22;;;0.73;100.00
54936;BME280;40838;50.676;7.838;2024-03-08T05:55:57;98151.63;;;0.73;100.00
54936;BME280;40838;50.676;7.838;2024-03-08T05:58:24;98147.38;;;0.09;100.00
54936;BME280;40838;50.676;7.838;2024-03-08T06:00:51;98139.34;;;0.32;100.00
54936;BME280;40838;50.676;7.838;2024-03-08T06:03:18;98140.78;;;0.35;100.00
54936;BME280;40838;50.676;7.838;2024-03-08T06:05:47;98141.72;;;0.27;100.00
54936;BME280;40838;50.676;7.838;2024-03-08T06:08:18;98139.22;;;0.40;100.00
54936;BME280;40838;50.676;7.838;2024-03-08T06:10:45;98140.19;;;0.39;100.00
54936;BME280;40838;50.676;7.838;2024-03-08T06:13:14;98131.56;;;0.67;100.00
54936;BME280;40838;50.676;7.838;2024-03-08T06:15:41;98133.56;;;0.71;100.00
54936;BME280;40838;50.676;7.838;2024-03-08T06:18:10;98132.81;;;1.19;100.00
54936;BME280;40838;50.676;7.838;2024-03-08T06:20:37;98129.50;;;1.52;100.00
54936;BME280;40838;50.676;7.838;2024-03-08T06:23:04;98121.09;;;2.49;100.00
54936;BME280;40838;50.676;7.838;2024-03-08T06:25:32;98127.56;;;3.12;100.00
54936;BME280;40838;50.676;7.838;2024-03-08T06:28:00;98119.56;;;3.45;100.00
54936;BME280;40838;50.676;7.838;2024-03-08T06:30:27;98124.78;;;3.00;100.00
54936;BME280;40838;50.676;7.838;2024-03-08T06:32:54;98120.03;;;3.29;100.00
54936;BME280;40838;50.676;7.838;2024-03-08T06:35:21;98122.53;;;3.87;100.00
54936;BME280;40838;50.676;7.838;2024-03-08T06:37:48;98126.75;;;3.95;100.00
54936;BME280;40838;50.676;7.838;2024-03-08T06:40:15;98126.31;;;4.23;100.00
54936;BME280;40838;50.676;7.838;2024-03-08T06:42:43;98109.75;;;6.47;100.00
54936;BME280;40838;50.676;7.838;2024-03-08T06:45:11;98118.41;;;6.35;100.00
54936;BME280;40838;50.676;7.838;2024-03-08T06:47:38;98110.66;;;5.75;100.00
54936;BME280;40838;50.676;7.838;2024-03-08T06:50:07;98117.53;;;5.46;100.00
54936;BME280;40838;50.676;7.838;2024-03-08T06:52:34;98125.59;;;5.14;100.00
54936;BME280;40838;50.676;7.838;2024-03-08T06:55:01;98117.75;;;5.44;100.00
54936;BME280;40838;50.676;7.838;2024-03-08T06:57:28;98112.44;;;5.02;100.00
54936;BME280;40838;50.676;7.838;2024-03-08T06:59:57;98114.50;;;5.61;100.00
54936;BME280;40838;50.676;7.838;2024-03-08T07:02:24;98107.09;;;6.70;100.00
54936;BME280;40838;50.676;7.838;2024-03-08T07:04:51;98113.63;;;7.48;100.00
54936;BME280;40838;50.676;7.838;2024-03-08T07:07:18;98110.56;;;7.11;100.00
54936;BME280;40838;50.676;7.838;2024-03-08T07:09:46;98106.44;;;6.63;100.00
54936;BME280;40838;50.676;7.838;2024-03-08T07:12:15;98107.88;;;6.82;100.00
54936;BME280;40838;50.676;7.838;2024-03-08T07:14:42;98108.53;;;7.30;100.00
54936;BME280;40838;50.676;7.838;2024-03-08T07:17:11;98098.91;;;7.07;100.00
54936;BME280;40838;50.676;7.838;2024-03-08T07:19:38;98093.81;;;6.18;100.00
54936;BME280;40838;50.676;7.838;2024-03-08T07:22:05;98099.84;;;7.01;100.00
54936;BME280;40838;50.676;7.838;2024-03-08T07:24:34;98095.06;;;7.55;99.41
54936;BME280;40838;50.676;7.838;2024-03-08T07:27:17;98089.81;;;6.62;100.00
54936;BME280;40838;50.676;7.838;2024-03-08T07:29:44;98081.75;;;6.40;100.00
54936;BME280;40838;50.676;7.838;2024-03-08T07:32:12;98090.97;;;6.31;100.00
54936;BME280;40838;50.676;7.838;2024-03-08T07:34:47;98083.22;;;6.60;100.00
54936;BME280;40838;50.676;7.838;2024-03-08T07:37:14;98089.91;;;7.77;94.50
54936;BME280;40838;50.676;7.838;2024-03-08T07:39:41;98071.19;;;7.62;97.77
54936;BME280;40838;50.676;7.838;2024-03-08T07:42:09;98088.53;;;6.89;100.00
54936;BME280;40838;50.676;7.838;2024-03-08T07:44:37;98077.25;;;6.65;100.00
54936;BME280;40838;50.676;7.838;2024-03-08T07:47:04;98076.88;;;6.84;100.00
54936;BME280;40838;50.676;7.838;2024-03-08T07:49:34;98075.25;;;7.52;98.17
54936;BME280;40838;50.676;7.838;2024-03-08T07:52:01;98085.78;;;7.24;95.84
54936;BME280;40838;50.676;7.838;2024-03-08T07:54:29;98071.53;;;6.56;100.00
54936;BME280;40838;50.676;7.838;2024-03-08T07:56:56;98067.84;;;6.69;100.00
54936;BME280;40838;50.676;7.838;2024-03-08T07:59:24;98073.56;;;6.77;100.00
54936;BME280;40838;50.676;7.838;2024-03-08T08:01:51;98061.88;;;7.25;100.00
54936;BME280;40838;50.676;7.838;2024-03-08T08:04:18;98066.03;;;7.09;100.00
54936;BME280;40838;50.676;7.838;2024-03-08T08:06:51;98067.63;;;6.70;100.00
54936;BME280;40838;50.676;7.838;2024-03-08T08:09:18;98061.22;;;6.78;100.00
54936;BME280;40838;50.676;7.838;2024-03-08T08:11:54;98061.00;;;7.65;97.86
54936;BME280;40838;50.676;7.838;2024-03-08T08:14:21;98061.78;;;7.83;95.54
54936;BME280;40838;50.676;7.838;2024-03-08T08:16:48;98063.31;;;7.04;100.00
54936;BME280;40838;50.676;7.838;2024-03-08T08:19:17;98051.53;;;5.84;100.00
54936;BME280;40838;50.676;7.838;2024-03-08T08:21:43;98052.28;;;7.19;100.00
54936;BME280;40838;50.676;7.838;2024-03-08T08:24:12;98051.28;;;6.68;100.00
54936;BME280;40838;50.676;7.838;2024-03-08T08:26:40;98035.19;;;6.17;100.00
54936;BME280;40838;50.676;7.838;2024-03-08T08:29:07;98045.66;;;7.79;99.99
54936;BME280;40838;50.676;7.838;2024-03-08T08:31:33;98030.56;;;6.83;100.00
54936;BME280;40838;50.676;7.838;2024-03-08T08:34:01;98047.66;;;5.87;100.00
54936;BME280;40838;50.676;7.838;2024-03-08T08:36:28;98033.22;;;5.78;100.00
54936;BME280;40838;50.676;7.838;2024-03-08T08:38:57;98031.88;;;5.75;100.00
54936;BME280;40838;50.676;7.838;2024-03-08T08:41:26;98027.69;;;6.85;100.00
54936;BME280;40838;50.676;7.838;2024-03-08T08:43:55;98022.75;;;6.89;100.00
54936;BME280;40838;50.676;7.838;2024-03-08T08:46:21;98022.63;;;6.31;100.00
54936;BME280;40838;50.676;7.838;2024-03-08T08:48:48;98001.63;;;5.84;100.00
54936;BME280;40838;50.676;7.838;2024-03-08T08:51:15;98015.22;;;7.09;100.00
54936;BME280;40838;50.676;7.838;2024-03-08T08:53:42;97991.66;;;6.10;100.00
54936;BME280;40838;50.676;7.838;2024-03-08T08:56:11;98017.38;;;6.08;100.00
54936;BME280;40838;50.676;7.838;2024-03-08T08:58:40;97993.53;;;5.32;100.00
54936;BME280;40838;50.676;7.838;2024-03-08T09:01:07;98013.72;;;5.85;100.00
54936;BME280;40838;50.676;7.838;2024-03-08T09:03:35;98004.25;;;6.20;100.00
54936;BME280;40838;50.676;7.838;2024-03-08T09:06:03;97989.63;;;5.88;100.00
54936;BME280;40838;50.676;7.838;2024-03-08T09:08:30;97993.06;;;5.23;100.00
54936;BME280;40838;50.676;7.838;2024-03-08T09:10:57;97980.53;;;4.95;100.00
54936;BME280;40838;50.676;7.838;2024-03-08T09:13:25;97983.94;;;5.26;100.00
54936;BME280;40838;50.676;7.838;2024-03-08T09:15:53;97985.91;;;6.60;100.00
54936;BME280;40838;50.676;7.838;2024-03-08T09:18:20;97980.75;;;6.94;100.00
54936;BME280;40838;50.676;7.838;2024-03-08T09:20:47;97985.50;;;5.69;100.00
54936;BME280;40838;50.676;7.838;2024-03-08T09:23:14;97983.31;;;6.77;100.00
54936;BME280;40838;50.676;7.838;2024-03-08T09:25:42;97966.06;;;6.81;100.00
54936;BME280;40838;50.676;7.838;2024-03-08T09:28:09;97981.59;;;6.42;100.00
54936;BME280;40838;50.676;7.838;2024-03-08T09:30:37;97973.78;;;7.16;99.13
54936;BME280;40838;50.676;7.838;2024-03-08T09:33:05;97978.75;;;6.84;100.00
54936;BME280;40838;50.676;7.838;2024-03-08T09:35:33;97956.25;;;6.12;100.00
54936;BME280;40838;50.676;7.838;2024-03-08T09:37:59;97961.59;;;7.10;100.00
54936;BME280;40838;50.676;7.838;2024-03-08T09:40:27;97962.66;;;6.16;100.00
54936;BME280;40838;50.676;7.838;2024-03-08T09:42:54;97965.66;;;7.35;99.34
54936;BME280;40838;50.676;7.838;2024-03-08T09:45:21;97956.56;;;7.59;95.10
54936;BME280;40838;50.676;7.838;2024-03-08T09:47:49;97950.88;;;6.19;99.15
54936;BME280;40838;50.676;7.838;2024-03-08T09:50:17;97951.13;;;7.32;94.61
54936;BME280;40838;50.676;7.838;2024-03-08T09:52:47;97963.34;;;7.55;93.49
54936;BME280;40838;50.676;7.838;2024-03-08T09:55:15;97941.44;;;6.58;96.99
54936;BME280;40838;50.676;7.838;2024-03-08T09:57:43;97950.03;;;7.28;94.50
54936;BME280;40838;50.676;7.838;2024-03-08T10:00:31;97950.69;;;8.08;90.95
54936;BME280;40838;50.676;7.838;2024-03-08T10:03:00;97946.19;;;7.69;91.64
54936;BME280;40838;50.676;7.838;2024-03-08T10:05:30;97946.16;;;7.02;94.85
54936;BME280;40838;50.676;7.838;2024-03-08T10:07:58;97939.00;;;7.82;91.76
54936;BME280;40838;50.676;7.838;2024-03-08T10:10:25;97935.56;;;7.81;90.22
54936;BME280;40838;50.676;7.838;2024-03-08T10:12:52;97940.75;;;7.76;89.13
54936;BME280;40838;50.676;7.838;2024-03-08T10:15:19;97934.50;;;7.82;88.59
54936;BME280;40838;50.676;7.838;2024-03-08T10:17:46;97937.19;;;8.04;87.71
54936;BME280;40838;50.676;7.838;2024-03-08T10:20:14;97935.03;;;7.45;89.47
54936;BME280;40838;50.676;7.838;2024-03-08T10:22:43;97946.59;;;7.78;90.89
54936;BME280;40838;50.676;7.838;2024-03-08T10:25:10;97929.94;;;7.22;91.76
54936;BME280;40838;50.676;7.838;2024-03-08T10:27:38;97925.47;;;7.95;87.41
54936;BME280;40838;50.676;7.838;2024-03-08T10:30:10;97913.31;;;7.94;88.53
54936;BME280;40838;50.676;7.838;2024-03-08T10:32:38;97915.72;;;7.40;90.36
54936;BME280;40838;50.676;7.838;2024-03-08T10:35:07;97908.94;;;8.65;82.31
54936;BME280;40838;50.676;7.838;2024-03-08T10:37:42;97901.84;;;8.98;82.32
54936;BME280;40838;50.676;7.838;2024-03-08T10:40:16;97859.09;;;8.20;82.55
54936;BME280;40838;50.676;7.838;2024-03-08T10:42:51;97894.69;;;8.66;81.93
54936;BME280;40838;50.676;7.838;2024-03-08T10:45:26;97886.06;;;9.41;79.83
54936;BME280;40838;50.676;7.838;2024-03-08T10:48:15;97893.03;;;9.52;76.07
54936;BME280;40838;50.676;7.838;2024-03-08T10:50:46;97880.84;;;8.81;80.11
54936;BME280;40838;50.676;7.838;2024-03-08T10:53:17;97861.91;;;7.91;80.58
54936;BME280;40838;50.676;7.838;2024-03-08T10:55:49;97871.66;;;8.57;79.58
54936;BME280;40838;50.676;7.838;2024-03-08T10:58:19;97899.63;;;8.85;77.75
54936;BME280;40838;50.676;7.838;2024-03-08T11:00:46;97890.00;;;9.01;78.66
54936;BME280;40838;50.676;7.838;2024-03-08T11:03:45;97880.22;;;9.33;75.27
54936;BME280;40838;50.676;7.838;2024-03-08T11:06:16;97861.22;;;8.99;76.89
54936;BME280;40838;50.676;7.838;2024-03-08T11:08:44;97871.00;;;8.44;79.12
54936;BME280;40838;50.676;7.838;2024-03-08T11:11:27;97870.44;;;9.34;77.91
54936;BME280;40838;50.676;7.838;2024-03-08T11:13:56;97871.03;;;8.50;78.41
54936;BME280;40838;50.676;7.838;2024-03-08T11:16:43;97859.28;;;8.13;78.74
54936;BME280;40838;50.676;7.838;2024-03-08T11:19:24;97861.59;;;8.54;76.95
54936;BME280;40838;50.676;7.838;2024-03-08T11:22:00;97851.16;;;8.96;73.45
54936;BME280;40838;50.676;7.838;2024-03-08T11:24:28;97826.59;;;8.96;73.44
54936;BME280;40838;50.676;7.838;2024-03-08T11:27:05;97839.06;;;8.73;74.55
54936;BME280;40838;50.676;7.838;2024-03-08T11:29:33;97835.78;;;8.88;73.70
54936;BME280;40838;50.676;7.838;2024-03-08T11:32:07;97842.06;;;8.28;76.31
54936;BME280;40838;50.676;7.838;2024-03-08T11:34:35;97827.47;;;8.42;74.84
54936;BME280;40838;50.676;7.838;2024-03-08T11:37:04;97814.72;;;8.34;76.42
54936;BME280;40838;50.676;7.838;2024-03-08T11:39:31;97820.41;;;8.53;74.77
54936;BME280;40838;50.676;7.838;2024-03-08T11:41:58;97805.78;;;8.99;72.97
54936;BME280;40838;50.676;7.838;2024-03-08T11:44:28;97804.75;;;9.05;77.18
54936;BME280;40838;50.676;7.838;2024-03-08T11:46:57;97813.72;;;9.42;74.53
54936;BME280;40838;50.676;7.838;2024-03-08T11:49:24;97797.97;;;9.15;76.90
54936;BME280;40838;50.676;7.838;2024-03-08T11:51:52;97809.16;;;9.27;78.64
54936;BME280;40838;50.676;7.838;2024-03-08T11:54:19;97801.78;;;8.92;80.58
54936;BME280;40838;50.676;7.838;2024-03-08T11:56:46;97807.22;;;9.17;79.37
54936;BME280;40838;50.676;7.838;2024-03-08T11:59:13;97803.06;;;8.30;80.79
54936;BME280;40838;50.676;7.838;2024-03-08T12:01:41;97813.44;;;9.01;79.37
54936;BME280;40838;50.676;7.838;2024-03-08T12:04:12;97794.69;;;8.38;83.06
54936;BME280;40838;50.676;7.838;2024-03-08T12:06:40;97815.59;;;8.72;81.71
54936;BME280;40838;50.676;7.838;2024-03-08T12:09:11;97800.72;;;8.60;83.17
54936;BME280;40838;50.676;7.838;2024-03-08T12:11:38;97784.72;;;8.72;79.88
54936;BME280;40838;50.676;7.838;2024-03-08T12:14:06;97785.84;;;8.00;84.29
54936;BME280;40838;50.676;7.838;2024-03-08T12:16:33;97791.03;;;8.39;84.03
54936;BME280;40838;50.676;7.838;2024-03-08T12:19:00;97786.34;;;7.97;84.61
54936;BME280;40838;50.676;7.838;2024-03-08T12:21:31;97762.66;;;8.02;83.59
54936;BME280;40838;50.676;7.838;2024-03-08T12:24:03;97778.19;;;8.48;86.53
54936;BME280;40838;50.676;7.838;2024-03-08T12:26:30;97777.91;;;8.22;83.65
54936;BME280;40838;50.676;7.838;2024-03-08T12:29:16;97767.00;;;8.67;81.59
54936;BME280;40838;50.676;7.838;2024-03-08T12:31:45;97779.81;;;8.54;83.87
54936;BME280;40838;50.676;7.838;2024-03-08T12:34:14;97775.91;;;8.07;84.31
54936;BME280;40838;50.676;7.838;2024-03-08T12:36:48;97761.09;;;8.55;81.77
54936;BME280;40838;50.676;7.838;2024-03-08T12:39:16;97769.69;;;9.10;79.52
54936;BME280;40838;50.676;7.838;2024-03-08T12:41:43;97754.22;;;8.86;80.89
54936;BME280;40838;50.676;7.838;2024-03-08T12:44:12;97751.63;;;8.92;80.59
54936;BME280;40838;50.676;7.838;2024-03-08T12:46:39;97745.69;;;9.17;79.85
54936;BME280;40838;50.676;7.838;2024-03-08T12:49:10;97744.59;;;8.70;80.47
54936;BME280;40838;50.676;7.838;2024-03-08T12:51:39;97739.78;;;9.52;79.77
54936;BME280;40838;50.676;7.838;2024-03-08T12:54:07;97740.84;;;8.98;82.07
54936;BME280;40838;50.676;7.838;2024-03-08T12:56:34;97721.34;;;8.67;83.25
54936;BME280;40838;50.676;7.838;2024-03-08T12:59:03;97737.50;;;8.16;86.65
54936;BME280;40838;50.676;7.838;2024-03-08T13:01:31;97725.88;;;8.72;83.86
54936;BME280;40838;50.676;7.838;2024-03-08T13:03:58;97723.03;;;8.19;82.45
54936;BME280;40838;50.676;7.838;2024-03-08T13:06:25;97714.88;;;8.48;83.52
54936;BME280;40838;50.676;7.838;2024-03-08T13:08:55;97726.81;;;8.55;83.22